createdAt,value
2023-01-09T00:02:59.274Z,11.20
2023-01-09T00:07:00.777Z,11.30
2023-01-09T00:11:02.353Z,12.40
2023-01-09T00:15:05.104Z,12.10
2023-01-09T00:19:06.677Z,11.32
2023-01-09T00:23:08.158Z,12.38
2023-01-09T00:27:09.687Z,13.15
2023-01-09T00:31:12.435Z,13.45
2023-01-09T00:35:16.785Z,10.00
2023-01-09T00:39:18.183Z,13.00
2023-01-09T00:43:20.671Z,10.07
2023-01-09T00:47:37.198Z,16.23
2023-01-09T00:51:41.296Z,11.75
2023-01-09T00:55:42.770Z,13.55
2023-01-09T00:59:44.604Z,15.07
2023-01-09T01:03:46.074Z,14.32
2023-01-09T01:07:47.574Z,12.63
2023-01-09T01:11:48.965Z,14.23
2023-01-09T01:15:50.496Z,14.50
2023-01-09T01:19:51.910Z,12.10
2023-01-09T01:23:53.315Z,15.05
2023-01-09T01:27:54.766Z,13.05
2023-01-09T01:31:56.435Z,13.18
2023-01-09T01:36:05.983Z,12.93
2023-01-09T01:40:09.092Z,15.40
2023-01-09T01:44:48.144Z,13.82
2023-01-09T01:48:59.579Z,14.13
2023-01-09T01:53:10.084Z,15.43
2023-01-09T01:57:12.081Z,14.40
2023-01-09T02:01:14.408Z,13.68
2023-01-09T02:05:16.238Z,16.15
2023-01-09T02:09:20.381Z,14.93
2023-01-09T02:13:22.642Z,15.88
2023-01-09T02:17:49.088Z,15.65
2023-01-09T02:21:57.453Z,14.43
2023-01-09T02:26:11.127Z,16.20
2023-01-09T02:30:25.649Z,17.00
2023-01-09T02:34:45.774Z,16.05
2023-01-09T02:39:14.526Z,16.92
2023-01-09T02:43:16.683Z,16.50
2023-01-09T02:47:18.060Z,16.77
2023-01-09T02:51:34.241Z,17.70
2023-01-09T02:55:47.214Z,19.13
2023-01-09T03:00:28.383Z,19.77
2023-01-09T03:04:56.325Z,17.45
2023-01-09T03:09:05.269Z,19.90
2023-01-09T03:13:13.581Z,22.37
2023-01-09T03:17:38.794Z,16.92
2023-01-09T03:21:42.129Z,18.73
2023-01-09T03:25:43.592Z,20.60
2023-01-09T03:29:45.074Z,18.23
2023-01-09T03:33:46.555Z,18.15
2023-01-09T03:37:48.023Z,23.88
2023-01-09T03:41:49.479Z,16.63
2023-01-09T03:45:51.007Z,17.75
2023-01-09T03:49:52.465Z,20.55
2023-01-09T03:53:53.945Z,23.92
2023-01-09T03:57:55.463Z,19.67
2023-01-09T04:01:56.996Z,18.02
2023-01-09T04:05:58.460Z,24.33
2023-01-09T04:09:59.848Z,25.00
2023-01-09T04:14:01.299Z,18.27
2023-01-09T04:18:04.368Z,20.30
2023-01-09T04:22:05.763Z,18.70
2023-01-09T04:26:07.927Z,25.35
2023-01-09T04:30:10.047Z,18.42
2023-01-09T04:34:11.507Z,17.48
2023-01-09T04:38:13.083Z,18.63
2023-01-09T04:42:14.610Z,16.95
2023-01-09T04:46:16.093Z,20.40
2023-01-09T04:54:29.855Z,19.30
2023-01-09T04:58:31.289Z,17.70
2023-01-09T05:02:32.755Z,17.45
2023-01-09T05:06:34.931Z,20.50
2023-01-09T05:10:36.395Z,18.10
2023-01-09T05:14:37.862Z,18.15
2023-01-09T05:18:39.451Z,19.35
2023-01-09T05:22:40.904Z,18.50
2023-01-09T05:26:42.402Z,20.77
2023-01-09T05:30:43.988Z,17.85
2023-01-09T05:34:45.466Z,19.60
2023-01-09T05:38:46.926Z,21.65
2023-01-09T05:42:48.380Z,19.67
2023-01-09T05:46:49.865Z,22.23
2023-01-09T05:50:51.537Z,19.48
2023-01-09T05:54:53.072Z,21.33
2023-01-09T05:58:54.527Z,20.55
2023-01-09T06:02:56.132Z,20.02
2023-01-09T06:06:57.695Z,20.05
2023-01-09T06:10:59.199Z,20.85
2023-01-09T06:15:00.741Z,23.98
2023-01-09T06:19:08.525Z,21.15
2023-01-09T06:23:11.666Z,25.75
2023-01-09T06:27:14.500Z,22.30
2023-01-09T06:31:16.004Z,21.42
2023-01-09T06:35:22.353Z,22.20
2023-01-09T06:39:23.838Z,21.70
2023-01-09T06:43:25.362Z,22.33
2023-01-09T06:47:26.862Z,21.25
2023-01-09T06:51:28.292Z,22.17
2023-01-09T06:55:29.889Z,21.65
2023-01-09T06:59:31.349Z,22.38
2023-01-09T07:03:33.835Z,22.10
2023-01-09T07:07:35.436Z,22.23
2023-01-09T07:11:36.882Z,22.77
2023-01-09T07:15:38.531Z,20.95
2023-01-09T07:19:40.940Z,25.35
2023-01-09T07:23:42.387Z,22.70
2023-01-09T07:27:43.878Z,25.63
2023-01-09T07:31:45.404Z,24.23
2023-01-09T07:35:46.925Z,24.92
2023-01-09T07:39:48.478Z,24.50
2023-01-09T07:43:49.895Z,25.20
2023-01-09T07:47:52.287Z,27.70
2023-01-09T07:51:54.437Z,26.02
2023-01-09T07:55:55.879Z,25.23
2023-01-09T07:59:57.352Z,23.80
2023-01-09T08:03:58.848Z,26.33
2023-01-09T08:08:01.878Z,22.52
2023-01-09T08:12:04.229Z,26.65
2023-01-09T08:16:06.043Z,24.30
2023-01-09T08:20:08.191Z,27.63
2023-01-09T08:24:09.886Z,22.65
2023-01-09T08:28:11.355Z,25.08
2023-01-09T08:32:12.875Z,23.13
2023-01-09T08:36:14.384Z,23.83
2023-01-09T08:40:16.943Z,22.02
2023-01-09T08:44:36.730Z,21.33
2023-01-09T08:48:38.153Z,25.98
2023-01-09T08:52:39.574Z,21.08
2023-01-09T08:56:40.999Z,18.40
2023-01-09T09:00:42.562Z,24.77
2023-01-09T09:04:48.004Z,21.52
2023-01-09T09:08:49.485Z,19.48
2023-01-09T09:12:52.793Z,19.48
2023-01-09T09:16:54.432Z,21.85
2023-01-09T09:20:56.032Z,30.88
2023-01-09T09:24:57.462Z,25.42
2023-01-09T09:28:59.056Z,18.00
2023-01-09T09:33:04.219Z,23.73
2023-01-09T09:37:05.741Z,22.65
2023-01-09T09:41:52.181Z,14.05
2023-01-09T09:46:20.146Z,18.42
2023-01-09T09:50:33.515Z,18.92
2023-01-09T09:54:47.283Z,18.13
2023-01-09T09:58:57.057Z,16.25
2023-01-09T10:03:06.215Z,8.60
2023-01-09T10:07:16.891Z,18.33
2023-01-09T10:11:31.892Z,19.15
2023-01-09T10:15:48.068Z,15.65
2023-01-09T10:20:11.631Z,11.60
2023-01-09T10:24:36.872Z,9.40
2023-01-09T10:29:33.849Z,7.93
2023-01-09T10:33:48.008Z,11.48
2023-01-09T10:37:53.379Z,13.10
2023-01-09T10:42:11.233Z,10.98
2023-01-09T10:46:22.913Z,11.85
2023-01-09T10:50:30.455Z,12.80
2023-01-09T10:54:32.305Z,6.72
2023-01-09T10:58:33.991Z,13.82
2023-01-09T11:02:36.232Z,9.68
2023-01-09T11:06:47.549Z,9.60
2023-01-09T11:10:52.488Z,3.75
2023-01-09T11:14:54.150Z,6.00
2023-01-09T11:18:59.159Z,7.85
2023-01-09T11:23:00.606Z,7.13
2023-01-09T11:27:14.017Z,4.13
2023-01-09T11:31:21.850Z,6.82
2023-01-09T11:35:26.475Z,4.63
2023-01-09T11:39:32.504Z,4.75
2023-01-09T11:43:40.634Z,5.40
2023-01-09T11:47:43.231Z,6.65
2023-01-09T11:51:44.801Z,2.88
2023-01-09T11:55:52.396Z,1.65
2023-01-09T12:00:01.446Z,4.43
2023-01-09T12:04:21.404Z,6.40
2023-01-09T12:08:52.185Z,3.95
2023-01-09T12:17:43.874Z,3.55
2023-01-09T12:21:57.491Z,2.60
2023-01-09T12:26:40.925Z,5.10
2023-01-09T12:31:04.275Z,6.47
2023-01-09T12:35:28.960Z,28.45
2023-01-09T12:40:11.452Z,4.43
2023-01-09T12:44:35.507Z,4.45
2023-01-09T12:48:55.383Z,4.45
2023-01-09T12:53:08.939Z,7.85
2023-01-09T12:57:20.906Z,2.70
2023-01-09T13:01:41.500Z,3.13
2023-01-09T13:05:47.145Z,4.13
2023-01-09T13:10:25.620Z,3.08
2023-01-09T13:14:42.258Z,2.63
2023-01-09T13:18:56.035Z,4.75
2023-01-09T13:22:59.184Z,4.32
2023-01-09T13:27:06.686Z,5.32
2023-01-09T13:31:32.387Z,2.60
2023-01-09T13:35:33.908Z,3.75
2023-01-09T13:39:35.734Z,6.07
2023-01-09T13:44:02.112Z,3.20
2023-01-09T13:48:17.390Z,5.75
2023-01-09T13:52:29.865Z,2.28
2023-01-09T13:56:31.411Z,2.45
2023-01-09T14:00:35.668Z,2.13
2023-01-09T14:04:42.857Z,3.00
2023-01-09T14:08:45.613Z,3.17
2023-01-09T14:12:48.274Z,4.65
2023-01-09T14:16:50.104Z,2.60
2023-01-09T14:21:11.912Z,3.65
2023-01-09T14:29:39.031Z,3.10
2023-01-09T14:33:40.751Z,4.22
2023-01-09T14:37:44.047Z,2.65
2023-01-09T14:42:05.606Z,4.68
2023-01-09T14:46:14.400Z,4.55
2023-01-09T14:50:23.569Z,3.17
2023-01-09T14:54:30.455Z,7.00
2023-01-09T14:58:36.207Z,4.25
2023-01-09T15:02:39.578Z,5.55
2023-01-09T15:06:43.315Z,5.28
2023-01-09T15:10:47.255Z,4.72
2023-01-09T15:14:54.186Z,3.88
2023-01-09T15:19:00.511Z,4.35
2023-01-09T15:23:04.190Z,4.05
2023-01-09T15:27:15.556Z,2.67
2023-01-09T15:31:20.288Z,3.00
2023-01-09T15:35:21.900Z,3.25
2023-01-09T15:39:31.311Z,2.97
2023-01-09T15:43:33.310Z,5.75
2023-01-09T15:47:34.795Z,5.22
2023-01-09T15:51:36.451Z,2.90
2023-01-09T15:55:38.482Z,3.58
2023-01-09T15:59:39.989Z,5.93
2023-01-09T16:03:41.467Z,2.53
2023-01-09T16:07:48.044Z,8.88
2023-01-09T16:11:53.118Z,3.00
2023-01-09T16:15:56.182Z,3.30
2023-01-09T16:19:59.491Z,2.40
2023-01-09T16:24:24.336Z,2.97
2023-01-09T16:28:30.708Z,1.70
2023-01-09T16:32:47.313Z,6.22
2023-01-09T16:36:48.864Z,2.15
2023-01-09T16:41:17.823Z,2.97
2023-01-09T16:45:20.660Z,4.25
2023-01-09T16:49:29.288Z,4.15
2023-01-09T16:53:31.920Z,1.30
2023-01-09T16:57:35.066Z,2.75
2023-01-09T17:01:36.730Z,4.07
2023-01-09T17:05:38.269Z,5.90
2023-01-09T17:09:39.839Z,3.63
2023-01-09T17:13:41.258Z,2.72
2023-01-09T17:17:42.793Z,3.25
2023-01-09T17:21:44.463Z,3.35
2023-01-09T17:26:04.307Z,3.15
2023-01-09T17:30:18.284Z,2.95
2023-01-09T17:34:20.887Z,2.38
2023-01-09T17:38:22.417Z,3.72
2023-01-09T17:42:23.840Z,3.35
2023-01-09T17:46:37.132Z,3.10
2023-01-09T17:50:38.574Z,2.38
2023-01-09T17:54:40.626Z,3.15
2023-01-09T17:58:45.479Z,3.28
2023-01-09T18:02:46.960Z,2.00
2023-01-09T18:06:49.469Z,2.65
2023-01-09T18:10:51.029Z,5.25
2023-01-09T18:14:53.881Z,3.17
2023-01-09T18:18:57.669Z,2.58
2023-01-09T18:22:59.356Z,3.58
2023-01-09T18:27:00.785Z,1.50
2023-01-09T18:31:02.197Z,1.88
2023-01-09T18:35:03.962Z,3.92
2023-01-09T18:39:07.075Z,1.80
2023-01-09T18:43:10.267Z,2.80
2023-01-09T18:47:11.688Z,1.98
2023-01-09T18:51:13.123Z,2.55
2023-01-09T18:55:14.851Z,1.55
2023-01-09T18:59:16.366Z,5.43
2023-01-09T19:03:17.825Z,2.85
2023-01-09T19:07:19.462Z,1.70
2023-01-09T19:11:21.043Z,2.20
2023-01-09T19:15:22.573Z,1.10
2023-01-09T19:19:24.032Z,1.08
2023-01-09T19:23:25.685Z,3.08
2023-01-09T19:27:30.345Z,2.65
2023-01-09T19:31:32.226Z,2.60
2023-01-09T19:35:34.428Z,1.23
2023-01-09T19:39:37.315Z,1.75
2023-01-09T19:43:40.530Z,1.98
2023-01-09T19:47:42.572Z,1.20
2023-01-09T19:51:44.624Z,1.50
2023-01-09T19:55:46.096Z,2.50
2023-01-09T19:59:47.528Z,6.18
2023-01-09T20:03:49.742Z,5.53
2023-01-09T20:07:57.746Z,0.85
2023-01-09T20:12:00.115Z,1.83
2023-01-09T20:16:05.580Z,0.88
2023-01-09T20:20:08.380Z,1.85
2023-01-09T20:24:16.607Z,5.63
2023-01-09T20:28:18.074Z,2.35
2023-01-09T20:32:19.770Z,2.25
2023-01-09T20:36:27.208Z,2.75
2023-01-09T20:40:28.745Z,2.65
2023-01-09T20:44:30.315Z,5.90
2023-01-09T20:48:31.869Z,5.03
2023-01-09T20:52:33.384Z,1.25
2023-01-09T20:56:36.194Z,3.35
2023-01-09T21:00:37.818Z,1.02
2023-01-09T21:04:39.312Z,0.70
2023-01-09T21:08:47.762Z,2.90
2023-01-09T21:12:49.290Z,4.95
2023-01-09T21:16:54.428Z,3.47
2023-01-09T21:20:56.253Z,2.22
2023-01-09T21:24:57.890Z,2.65
2023-01-09T21:29:01.390Z,2.85
2023-01-09T21:33:02.866Z,1.98
2023-01-09T21:37:04.345Z,1.90
2023-01-09T21:41:24.120Z,3.58
2023-01-09T21:45:43.933Z,1.55
2023-01-09T21:49:45.546Z,1.25
2023-01-09T21:53:47.006Z,2.38
2023-01-09T21:57:48.477Z,4.32
2023-01-09T22:01:51.064Z,0.68
2023-01-09T22:05:52.548Z,3.03
2023-01-09T22:09:54.039Z,2.78
2023-01-09T22:13:57.361Z,2.95
2023-01-09T22:17:58.829Z,3.15
2023-01-09T22:22:02.546Z,1.73
2023-01-09T22:26:11.234Z,2.28
2023-01-09T22:30:13.034Z,2.92
2023-01-09T22:34:17.204Z,2.40
2023-01-09T22:38:18.659Z,2.00
2023-01-09T22:42:20.142Z,3.13
2023-01-09T22:46:21.626Z,1.98
2023-01-09T22:50:23.784Z,1.55
2023-01-09T22:54:25.226Z,5.05
2023-01-09T22:58:28.240Z,2.17
2023-01-09T23:02:29.760Z,2.35
2023-01-09T23:06:31.435Z,3.63
2023-01-09T23:10:32.879Z,1.92
2023-01-09T23:14:36.988Z,4.05
2023-01-09T23:18:38.405Z,2.63
2023-01-09T23:22:39.954Z,3.47
2023-01-09T23:26:43.456Z,2.88
2023-01-09T23:30:45.483Z,2.10
2023-01-09T23:34:48.886Z,0.73
2023-01-09T23:38:50.384Z,2.60
2023-01-09T23:43:10.254Z,3.78
2023-01-09T23:47:11.751Z,1.50
2023-01-09T23:51:13.198Z,2.50
2023-01-09T23:55:14.844Z,3.17
2023-01-09T23:59:17.890Z,3.85
